createdAt,value
2019-03-30T00:00:33.497Z,0.00
2019-03-30T00:01:33.366Z,0.00
2019-03-30T00:02:35.626Z,0.00
2019-03-30T00:03:33.105Z,0.00
2019-03-30T00:04:32.971Z,0.00
2019-03-30T00:05:32.840Z,0.00
2019-03-30T00:06:32.715Z,0.00
2019-03-30T00:07:32.578Z,0.00
2019-03-30T00:08:32.448Z,0.00
2019-03-30T00:09:32.314Z,0.00
2019-03-30T00:10:32.184Z,0.00
2019-03-30T00:11:32.052Z,0.00
2019-03-30T00:12:31.920Z,0.00
2019-03-30T00:13:31.797Z,0.00
2019-03-30T00:14:31.658Z,0.00
2019-03-30T00:15:31.527Z,0.00
2019-03-30T00:16:31.395Z,0.00
2019-03-30T00:17:31.265Z,0.00
2019-03-30T00:18:31.133Z,0.00
2019-03-30T00:19:35.025Z,0.00
2019-03-30T00:20:30.869Z,0.00
2019-03-30T00:21:30.738Z,0.00
2019-03-30T00:22:30.605Z,0.00
2019-03-30T00:23:30.475Z,0.00
2019-03-30T00:24:30.341Z,0.00
2019-03-30T00:25:30.212Z,0.00
2019-03-30T00:26:30.079Z,0.00
2019-03-30T00:27:29.948Z,0.00
2019-03-30T00:28:29.816Z,0.00
2019-03-30T00:29:29.777Z,0.00
2019-03-30T00:30:29.552Z,0.00
2019-03-30T00:31:29.439Z,0.00
2019-03-30T00:32:29.294Z,0.00
2019-03-30T00:33:29.159Z,0.00
2019-03-30T00:34:29.029Z,0.00
2019-03-30T00:35:28.898Z,0.00
2019-03-30T00:36:28.764Z,0.00
2019-03-30T00:37:28.631Z,0.00
2019-03-30T00:38:28.501Z,0.00
2019-03-30T00:39:28.372Z,0.00
2019-03-30T00:40:28.239Z,0.00
2019-03-30T00:41:28.106Z,0.00
2019-03-30T00:42:27.974Z,0.00
2019-03-30T00:43:27.844Z,0.00
2019-03-30T00:44:27.714Z,0.00
2019-03-30T00:45:27.580Z,0.00
2019-03-30T00:46:27.448Z,0.00
2019-03-30T00:47:27.318Z,0.00
2019-03-30T00:48:27.189Z,0.00
2019-03-30T00:49:27.054Z,0.00
2019-03-30T00:50:26.923Z,0.00
2019-03-30T00:51:26.793Z,0.00
2019-03-30T00:52:26.660Z,0.00
2019-03-30T00:53:26.528Z,0.00
2019-03-30T00:54:26.396Z,0.00
2019-03-30T00:55:26.269Z,0.00
2019-03-30T00:56:26.130Z,0.00
2019-03-30T00:57:26.000Z,0.00
2019-03-30T00:58:25.944Z,0.00
2019-03-30T00:59:25.756Z,0.00
2019-03-30T01:00:25.606Z,0.00
2019-03-30T01:01:25.475Z,0.00
2019-03-30T01:02:25.350Z,0.00
2019-03-30T01:03:25.215Z,0.00
2019-03-30T01:04:25.079Z,0.00
2019-03-30T01:05:24.949Z,0.00
2019-03-30T01:06:24.817Z,0.00
2019-03-30T01:07:24.686Z,0.00
2019-03-30T01:08:24.557Z,0.00
2019-03-30T01:09:24.423Z,0.00
2019-03-30T01:10:24.293Z,0.00
2019-03-30T01:11:24.160Z,0.00
2019-03-30T01:12:24.028Z,0.00
2019-03-30T01:13:23.897Z,0.00
2019-03-30T01:14:23.764Z,0.00
2019-03-30T01:15:23.633Z,0.00
2019-03-30T01:16:23.501Z,0.00
2019-03-30T01:17:23.374Z,0.00
2019-03-30T01:18:23.240Z,0.00
2019-03-30T01:19:23.104Z,0.00
2019-03-30T01:20:22.974Z,0.00
2019-03-30T01:21:22.842Z,0.00
2019-03-30T01:22:22.712Z,0.00
2019-03-30T01:23:22.578Z,0.00
2019-03-30T01:24:22.447Z,0.00
2019-03-30T01:25:22.317Z,0.00
2019-03-30T01:26:22.187Z,0.00
2019-03-30T01:27:22.052Z,0.00
2019-03-30T01:28:21.919Z,0.00
2019-03-30T01:29:21.792Z,0.00
2019-03-30T01:30:23.240Z,0.00
2019-03-30T01:31:21.525Z,0.00
2019-03-30T01:32:21.395Z,0.00
2019-03-30T01:33:21.260Z,0.00
2019-03-30T01:34:21.131Z,0.00
2019-03-30T01:35:21.202Z,0.00
2019-03-30T01:36:20.881Z,0.00
2019-03-30T01:37:20.736Z,0.00
2019-03-30T01:38:20.602Z,0.00
2019-03-30T01:39:20.474Z,0.00
2019-03-30T01:40:20.340Z,0.00
2019-03-30T01:41:20.209Z,0.00
2019-03-30T01:42:20.076Z,0.00
2019-03-30T01:43:19.944Z,0.00
2019-03-30T01:44:19.817Z,0.00
2019-03-30T01:45:19.680Z,0.00
2019-03-30T01:46:19.549Z,0.00
2019-03-30T01:47:19.419Z,0.00
2019-03-30T01:48:19.287Z,0.00
2019-03-30T01:49:19.153Z,0.00
2019-03-30T01:50:19.026Z,0.00
2019-03-30T01:51:18.891Z,0.00
2019-03-30T01:52:18.760Z,0.00
2019-03-30T01:53:18.632Z,0.00
2019-03-30T01:54:18.495Z,0.00
2019-03-30T01:55:18.364Z,0.00
2019-03-30T01:56:18.229Z,0.00
2019-03-30T01:57:18.102Z,0.00
2019-03-30T01:58:17.968Z,0.00
2019-03-30T01:59:17.840Z,0.00
2019-03-30T02:00:17.707Z,0.00
2019-03-30T02:01:17.571Z,0.00
2019-03-30T02:02:17.441Z,0.00
2019-03-30T02:03:17.313Z,0.00
2019-03-30T02:04:17.177Z,0.00
2019-03-30T02:05:17.049Z,0.00
2019-03-30T02:06:16.913Z,0.00
2019-03-30T02:07:16.782Z,0.00
2019-03-30T02:08:16.650Z,0.00
2019-03-30T02:09:16.517Z,0.00
2019-03-30T02:10:16.475Z,0.00
2019-03-30T02:11:16.255Z,0.00
2019-03-30T02:12:16.120Z,0.00
2019-03-30T02:13:15.991Z,0.00
2019-03-30T02:14:15.858Z,0.00
2019-03-30T02:15:15.725Z,0.00
2019-03-30T02:16:15.594Z,0.00
2019-03-30T02:17:15.466Z,0.00
2019-03-30T02:18:15.331Z,0.00
2019-03-30T02:19:15.198Z,0.00
2019-03-30T02:20:15.066Z,0.00
2019-03-30T02:21:14.938Z,0.00
2019-03-30T02:22:14.803Z,0.00
2019-03-30T02:23:14.679Z,0.00
2019-03-30T02:24:14.538Z,0.00
2019-03-30T02:25:14.408Z,0.00
2019-03-30T02:26:14.280Z,0.00
2019-03-30T02:27:14.142Z,0.00
2019-03-30T02:28:14.013Z,0.00
2019-03-30T02:29:13.879Z,0.00
2019-03-30T02:30:13.749Z,0.00
2019-03-30T02:31:13.617Z,0.00
2019-03-30T02:32:13.486Z,0.00
2019-03-30T02:33:13.366Z,0.00
2019-03-30T02:34:13.225Z,0.00
2019-03-30T02:35:13.091Z,0.00
2019-03-30T02:36:12.956Z,0.00
2019-03-30T02:37:12.822Z,0.00
2019-03-30T02:38:12.712Z,0.00
2019-03-30T02:39:12.563Z,0.00
2019-03-30T02:40:12.430Z,0.00
2019-03-30T02:41:12.301Z,0.00
2019-03-30T02:42:12.172Z,0.00
2019-03-30T02:43:12.034Z,0.00
2019-03-30T02:44:11.907Z,0.00
2019-03-30T02:45:11.769Z,0.00
2019-03-30T02:46:11.635Z,0.00
2019-03-30T02:47:11.509Z,0.00
2019-03-30T02:48:11.383Z,0.00
2019-03-30T02:49:11.239Z,0.00
2019-03-30T02:50:11.111Z,0.00
2019-03-30T02:51:10.985Z,0.00
2019-03-30T02:52:10.844Z,0.00
2019-03-30T02:53:10.715Z,0.00
2019-03-30T02:54:10.588Z,0.00
2019-03-30T02:55:12.796Z,0.00
2019-03-30T02:56:10.321Z,0.00
2019-03-30T02:57:10.192Z,0.00
2019-03-30T02:58:10.053Z,0.00
2019-03-30T02:59:09.924Z,0.00
2019-03-30T03:00:09.789Z,0.00
2019-03-30T03:01:09.657Z,0.00
2019-03-30T03:02:09.527Z,0.00
2019-03-30T03:03:09.396Z,0.00
2019-03-30T03:04:09.263Z,0.00
2019-03-30T03:05:09.133Z,0.00
2019-03-30T03:06:08.999Z,0.00
2019-03-30T03:07:08.867Z,0.00
2019-03-30T03:08:08.736Z,0.00
2019-03-30T03:09:08.602Z,0.00
2019-03-30T03:10:08.472Z,0.00
2019-03-30T03:11:08.342Z,0.00
2019-03-30T03:12:08.208Z,0.00
2019-03-30T03:13:08.077Z,0.00
2019-03-30T03:14:07.944Z,0.00
2019-03-30T03:15:07.818Z,0.00
2019-03-30T03:16:07.678Z,0.00
2019-03-30T03:17:07.548Z,0.00
2019-03-30T03:18:07.423Z,0.00
2019-03-30T03:19:07.282Z,0.00
2019-03-30T03:20:07.158Z,0.00
2019-03-30T03:21:08.535Z,0.00
2019-03-30T03:22:06.891Z,0.00
2019-03-30T03:23:06.758Z,0.00
2019-03-30T03:24:07.521Z,0.00
2019-03-30T03:25:06.493Z,0.00
2019-03-30T03:26:06.361Z,0.00
2019-03-30T03:27:06.226Z,0.00
2019-03-30T03:28:06.097Z,0.00
2019-03-30T03:29:05.965Z,0.00
2019-03-30T03:30:05.854Z,0.00
2019-03-30T03:31:05.850Z,0.00
2019-03-30T03:32:05.624Z,0.00
2019-03-30T03:33:05.446Z,0.00
2019-03-30T03:34:05.315Z,0.00
2019-03-30T03:35:05.208Z,0.00
2019-03-30T03:36:05.039Z,0.00
2019-03-30T03:37:04.909Z,0.00
2019-03-30T03:38:04.776Z,0.00
2019-03-30T03:39:04.646Z,0.00
2019-03-30T03:40:04.517Z,0.00
2019-03-30T03:41:04.379Z,0.00
2019-03-30T03:42:04.249Z,0.00
2019-03-30T03:43:04.121Z,0.00
2019-03-30T03:44:04.006Z,0.00
2019-03-30T03:45:03.850Z,0.00
2019-03-30T03:46:03.717Z,0.00
2019-03-30T03:47:03.591Z,0.00
2019-03-30T03:48:03.459Z,0.00
2019-03-30T03:49:03.324Z,0.00
2019-03-30T03:50:03.191Z,0.00
2019-03-30T03:51:03.057Z,0.00
2019-03-30T03:52:02.926Z,0.00
2019-03-30T03:53:03.539Z,0.00
2019-03-30T03:54:02.670Z,0.00
2019-03-30T03:55:02.528Z,0.00
2019-03-30T03:56:02.397Z,0.00
2019-03-30T03:57:02.264Z,0.00
2019-03-30T03:58:02.138Z,0.00
2019-03-30T03:59:02.003Z,0.00
2019-03-30T04:00:01.867Z,0.00
2019-03-30T04:01:01.740Z,0.00
2019-03-30T04:02:01.603Z,0.00
2019-03-30T04:03:01.472Z,0.00
2019-03-30T04:04:01.357Z,0.00
2019-03-30T04:05:01.214Z,0.00
2019-03-30T04:06:01.076Z,0.00
2019-03-30T04:07:00.947Z,0.00
2019-03-30T04:08:00.807Z,0.00
2019-03-30T04:09:00.679Z,0.00
2019-03-30T04:10:00.593Z,0.00
2019-03-30T04:11:00.414Z,0.00
2019-03-30T04:12:00.277Z,0.00
2019-03-30T04:13:00.161Z,0.00
2019-03-30T04:14:00.014Z,0.00
2019-03-30T04:14:59.881Z,0.00
2019-03-30T04:15:59.748Z,0.00
2019-03-30T04:16:59.613Z,0.00
2019-03-30T04:17:59.482Z,0.00
2019-03-30T04:18:59.353Z,0.00
2019-03-30T04:19:59.215Z,0.00
2019-03-30T04:20:59.088Z,0.00
2019-03-30T04:21:59.627Z,0.00
2019-03-30T04:22:58.819Z,0.00
2019-03-30T04:23:58.688Z,0.00
2019-03-30T04:24:58.559Z,0.00
2019-03-30T04:25:58.423Z,0.00
2019-03-30T04:26:58.292Z,0.00
2019-03-30T04:27:58.172Z,0.00
2019-03-30T04:28:58.026Z,0.00
2019-03-30T04:29:57.896Z,0.00
2019-03-30T04:30:57.758Z,0.00
2019-03-30T04:31:57.627Z,0.00
2019-03-30T04:32:57.493Z,0.00
2019-03-30T04:33:57.362Z,0.00
2019-03-30T04:34:57.229Z,0.00
2019-03-30T04:35:57.096Z,0.00
2019-03-30T04:36:56.964Z,0.00
2019-03-30T04:37:56.838Z,0.00
2019-03-30T04:38:56.700Z,0.00
2019-03-30T04:39:56.568Z,0.00
2019-03-30T04:40:56.433Z,0.00
2019-03-30T04:41:56.303Z,0.00
2019-03-30T04:42:56.169Z,0.00
2019-03-30T04:43:56.034Z,0.00
2019-03-30T04:44:55.903Z,0.00
2019-03-30T04:45:55.777Z,0.00
2019-03-30T04:46:55.644Z,0.00
2019-03-30T04:47:55.506Z,0.00
2019-03-30T04:48:55.378Z,0.00
2019-03-30T04:49:55.240Z,0.00
2019-03-30T04:50:55.595Z,0.00
2019-03-30T04:51:57.790Z,0.00
2019-03-30T04:52:54.844Z,0.00
2019-03-30T04:53:54.708Z,0.00
2019-03-30T04:54:54.578Z,0.00
2019-03-30T04:55:54.445Z,0.00
2019-03-30T04:56:54.311Z,0.00
2019-03-30T04:57:57.780Z,0.00
2019-03-30T04:58:54.050Z,0.00
2019-03-30T04:59:53.913Z,0.00
2019-03-30T05:00:53.784Z,0.00
2019-03-30T05:01:53.647Z,0.00
2019-03-30T05:02:53.517Z,0.00
2019-03-30T05:03:53.383Z,0.00
2019-03-30T05:04:53.251Z,0.00
2019-03-30T05:05:53.125Z,0.00
2019-03-30T05:06:52.985Z,0.00
2019-03-30T05:07:52.856Z,0.00
2019-03-30T05:08:52.726Z,5.63
2019-03-30T05:09:52.589Z,5.63
2019-03-30T05:10:52.457Z,5.63
2019-03-30T05:11:52.323Z,5.63
2019-03-30T05:12:52.190Z,5.63
2019-03-30T05:13:52.057Z,5.63
2019-03-30T05:14:51.928Z,5.63
2019-03-30T05:15:51.793Z,5.63
2019-03-30T05:16:51.660Z,5.63
2019-03-30T05:17:51.529Z,5.63
2019-03-30T05:18:51.394Z,11.25
2019-03-30T05:19:51.601Z,11.25
2019-03-30T05:20:51.130Z,11.25
2019-03-30T05:21:50.998Z,11.25
2019-03-30T05:22:51.477Z,11.25
2019-03-30T05:23:50.735Z,11.25
2019-03-30T05:24:50.598Z,11.25
2019-03-30T05:25:50.485Z,11.25
2019-03-30T05:26:50.337Z,11.25
2019-03-30T05:27:50.206Z,11.25
2019-03-30T05:28:50.069Z,16.88
2019-03-30T05:29:49.938Z,16.88
2019-03-30T05:30:49.807Z,16.88
2019-03-30T05:31:49.671Z,16.88
2019-03-30T05:32:49.539Z,16.88
2019-03-30T05:33:49.407Z,16.88
2019-03-30T05:34:49.274Z,16.88
2019-03-30T05:35:49.143Z,16.88
2019-03-30T05:36:49.012Z,16.88
2019-03-30T05:37:48.879Z,16.88
2019-03-30T05:38:48.758Z,22.50
2019-03-30T05:39:48.614Z,22.50
2019-03-30T05:40:48.481Z,22.50
2019-03-30T05:41:48.348Z,22.50
2019-03-30T05:42:48.218Z,22.50
2019-03-30T05:43:48.082Z,22.50
2019-03-30T05:44:47.951Z,22.50
2019-03-30T05:45:47.823Z,22.50
2019-03-30T05:46:47.687Z,22.50
2019-03-30T05:47:47.554Z,22.50
2019-03-30T05:48:47.618Z,28.13
2019-03-30T05:49:47.290Z,28.13
2019-03-30T05:50:47.158Z,28.13
2019-03-30T05:51:47.028Z,28.13
2019-03-30T05:52:46.891Z,28.13
2019-03-30T05:53:46.759Z,28.13
2019-03-30T05:54:46.628Z,28.13
2019-03-30T05:55:46.494Z,28.13
2019-03-30T05:56:46.364Z,28.13
2019-03-30T05:57:46.231Z,28.13
2019-03-30T05:58:46.098Z,33.75
2019-03-30T05:59:45.965Z,33.75
2019-03-30T06:00:45.836Z,33.75
2019-03-30T06:01:45.727Z,33.75
2019-03-30T06:02:45.570Z,39.38
2019-03-30T06:03:45.435Z,39.38
2019-03-30T06:04:45.306Z,45.00
2019-03-30T06:05:45.172Z,50.63
2019-03-30T06:06:45.045Z,56.25
2019-03-30T06:07:44.908Z,56.25
2019-03-30T06:08:44.778Z,61.88
2019-03-30T06:09:44.648Z,67.50
2019-03-30T06:10:44.514Z,67.50
2019-03-30T06:11:44.381Z,73.13
2019-03-30T06:12:44.252Z,73.13
2019-03-30T06:13:44.120Z,73.13
2019-03-30T06:14:43.987Z,73.13
2019-03-30T06:15:43.856Z,73.13
2019-03-30T06:16:43.725Z,73.13
2019-03-30T06:17:43.617Z,73.13
2019-03-30T06:18:43.464Z,78.75
2019-03-30T06:19:43.333Z,78.75
2019-03-30T06:20:43.206Z,78.75
2019-03-30T06:21:43.075Z,78.75
2019-03-30T06:22:42.941Z,78.75
2019-03-30T06:23:42.809Z,78.75
2019-03-30T06:24:42.679Z,78.75
2019-03-30T06:25:42.546Z,78.75
2019-03-30T06:26:42.415Z,84.38
2019-03-30T06:27:42.287Z,84.38
2019-03-30T06:28:42.160Z,84.38
2019-03-30T06:29:42.026Z,84.38
2019-03-30T06:30:41.898Z,84.38
2019-03-30T06:31:41.766Z,84.38
2019-03-30T06:32:41.718Z,84.38
2019-03-30T06:33:41.506Z,84.38
2019-03-30T06:34:41.374Z,84.38
2019-03-30T06:35:41.249Z,84.38
2019-03-30T06:36:41.116Z,84.38
2019-03-30T06:37:40.998Z,84.38
2019-03-30T06:38:40.856Z,84.38
2019-03-30T06:39:40.726Z,84.38
2019-03-30T06:40:40.600Z,84.38
2019-03-30T06:41:40.468Z,84.38
2019-03-30T06:42:40.340Z,84.38
2019-03-30T06:43:40.209Z,84.38
2019-03-30T06:44:40.082Z,84.38
2019-03-30T06:45:41.604Z,90.00
2019-03-30T06:46:39.873Z,90.00
2019-03-30T06:47:39.692Z,90.00
2019-03-30T06:48:41.108Z,90.00
2019-03-30T06:49:39.438Z,90.00
2019-03-30T06:50:39.310Z,90.00
2019-03-30T06:51:41.105Z,90.00
2019-03-30T06:52:42.737Z,90.00
2019-03-30T06:53:38.921Z,90.00
2019-03-30T06:54:40.605Z,95.63
2019-03-30T06:55:38.660Z,95.63
2019-03-30T06:56:38.536Z,95.63
2019-03-30T06:57:42.106Z,95.63
2019-03-30T06:58:38.279Z,95.63
2019-03-30T06:59:38.151Z,95.63
2019-03-30T07:00:39.020Z,95.63
2019-03-30T07:01:41.607Z,95.63
2019-03-30T07:02:37.764Z,95.63
2019-03-30T07:03:37.634Z,95.63
2019-03-30T07:04:37.506Z,95.63
2019-03-30T07:05:37.379Z,101.25
2019-03-30T07:06:37.260Z,101.25
2019-03-30T07:07:39.109Z,101.25
2019-03-30T07:08:36.992Z,101.25
2019-03-30T07:09:36.863Z,101.25
2019-03-30T07:10:38.395Z,101.25
2019-03-30T07:11:36.607Z,101.25
2019-03-30T07:12:36.480Z,101.25
2019-03-30T07:13:36.351Z,101.25
2019-03-30T07:14:36.225Z,101.25
2019-03-30T07:15:36.093Z,101.25
2019-03-30T07:16:35.967Z,101.25
2019-03-30T07:17:35.839Z,106.88
2019-03-30T07:18:35.710Z,106.88
2019-03-30T07:19:35.583Z,106.88
2019-03-30T07:20:35.453Z,106.88
2019-03-30T07:21:37.114Z,101.25
2019-03-30T07:22:35.199Z,106.88
2019-03-30T07:23:35.072Z,106.88
2019-03-30T07:24:34.955Z,106.88
2019-03-30T07:25:34.821Z,106.88
2019-03-30T07:26:34.735Z,106.88
2019-03-30T07:27:34.568Z,106.88
2019-03-30T07:28:34.431Z,106.88
2019-03-30T07:29:34.307Z,106.88
2019-03-30T07:30:34.177Z,106.88
2019-03-30T07:31:34.049Z,106.88
2019-03-30T07:32:33.920Z,112.50
2019-03-30T07:33:33.795Z,112.50
2019-03-30T07:34:33.669Z,112.50
2019-03-30T07:35:33.539Z,112.50
2019-03-30T07:36:33.415Z,118.13
2019-03-30T07:37:33.285Z,112.50
2019-03-30T07:38:33.166Z,112.50
2019-03-30T07:39:33.037Z,112.50
2019-03-30T07:40:34.008Z,112.50
2019-03-30T07:41:32.781Z,118.13
2019-03-30T07:42:32.652Z,118.13
2019-03-30T07:43:32.529Z,118.13
2019-03-30T07:44:32.408Z,118.13
2019-03-30T07:45:32.278Z,118.13
2019-03-30T07:46:32.148Z,118.13
2019-03-30T07:47:32.023Z,118.13
2019-03-30T07:48:31.894Z,118.13
2019-03-30T07:49:31.776Z,118.13
2019-03-30T07:50:31.641Z,118.13
2019-03-30T07:51:33.430Z,118.13
2019-03-30T07:52:31.390Z,123.75
2019-03-30T07:53:43.954Z,123.75
2019-03-30T07:54:31.148Z,123.75
2019-03-30T07:55:31.013Z,123.75
2019-03-30T07:56:30.885Z,123.75
2019-03-30T07:57:30.765Z,123.75
2019-03-30T07:58:30.637Z,123.75
2019-03-30T07:59:30.511Z,123.75
2019-03-30T08:00:31.076Z,118.13
2019-03-30T08:01:30.259Z,123.75
2019-03-30T08:02:30.135Z,123.75
2019-03-30T08:03:30.020Z,123.75
2019-03-30T08:04:29.881Z,123.75
2019-03-30T08:05:29.759Z,129.38
2019-03-30T08:06:29.634Z,129.38
2019-03-30T08:07:29.504Z,129.38
2019-03-30T08:08:29.379Z,129.38
2019-03-30T08:09:29.252Z,129.38
2019-03-30T08:10:29.129Z,129.38
2019-03-30T08:11:29.001Z,129.38
2019-03-30T08:12:28.883Z,129.38
2019-03-30T08:13:28.748Z,129.38
2019-03-30T08:14:28.625Z,129.38
2019-03-30T08:15:28.499Z,129.38
2019-03-30T08:16:28.375Z,129.38
2019-03-30T08:17:28.252Z,129.38
2019-03-30T08:18:28.124Z,129.38
2019-03-30T08:19:28.004Z,135.00
2019-03-30T08:20:27.876Z,129.38
2019-03-30T08:21:27.754Z,135.00
2019-03-30T08:22:27.626Z,135.00
2019-03-30T08:23:39.812Z,129.38
2019-03-30T08:24:27.576Z,129.38
2019-03-30T08:25:27.252Z,129.38
2019-03-30T08:26:27.161Z,129.38
2019-03-30T08:27:27.002Z,129.38
2019-03-30T08:28:26.877Z,129.38
2019-03-30T08:29:26.753Z,129.38
2019-03-30T08:30:26.631Z,135.00
2019-03-30T08:31:26.504Z,135.00
2019-03-30T08:32:26.378Z,135.00
2019-03-30T08:33:26.260Z,135.00
2019-03-30T08:34:26.131Z,135.00
2019-03-30T08:35:26.006Z,135.00
2019-03-30T08:36:25.972Z,135.00
2019-03-30T08:37:25.761Z,135.00
2019-03-30T08:38:25.635Z,135.00
2019-03-30T08:39:25.508Z,140.63
2019-03-30T08:40:25.386Z,135.00
2019-03-30T08:41:25.261Z,140.63
2019-03-30T08:42:25.137Z,140.63
2019-03-30T08:43:25.723Z,140.63
2019-03-30T08:44:24.888Z,140.63
2019-03-30T08:45:24.767Z,140.63
2019-03-30T08:46:24.644Z,140.63
2019-03-30T08:47:24.522Z,140.63
2019-03-30T08:48:24.395Z,140.63
2019-03-30T08:49:24.270Z,140.63
2019-03-30T08:50:24.149Z,146.25
2019-03-30T08:51:24.023Z,146.25
2019-03-30T08:52:23.903Z,146.25
2019-03-30T08:53:23.778Z,146.25
2019-03-30T08:54:23.653Z,146.25
2019-03-30T08:55:23.528Z,146.25
2019-03-30T08:56:23.408Z,146.25
2019-03-30T08:57:23.284Z,146.25
2019-03-30T08:58:23.158Z,146.25
2019-03-30T08:59:23.037Z,146.25
2019-03-30T09:00:22.910Z,146.25
2019-03-30T09:01:22.788Z,146.25
2019-03-30T09:02:22.666Z,146.25
2019-03-30T09:03:22.580Z,146.25
2019-03-30T09:04:22.420Z,146.25
2019-03-30T09:05:22.308Z,146.25
2019-03-30T09:06:22.177Z,146.25
2019-03-30T09:07:22.057Z,146.25
2019-03-30T09:08:21.929Z,146.25
2019-03-30T09:09:21.808Z,146.25
2019-03-30T09:10:21.683Z,146.25
2019-03-30T09:11:21.560Z,146.25
2019-03-30T09:12:21.726Z,146.25
2019-03-30T09:13:21.317Z,146.25
2019-03-30T09:14:21.193Z,146.25
2019-03-30T09:15:21.071Z,146.25
2019-03-30T09:16:20.947Z,146.25
2019-03-30T09:17:20.826Z,146.25
2019-03-30T09:18:20.703Z,146.25
2019-03-30T09:19:20.582Z,146.25
2019-03-30T09:20:20.459Z,146.25
2019-03-30T09:21:20.334Z,146.25
2019-03-30T09:22:20.212Z,146.25
2019-03-30T09:23:20.090Z,146.25
2019-03-30T09:24:19.967Z,146.25
2019-03-30T09:25:19.847Z,146.25
2019-03-30T09:26:19.726Z,146.25
2019-03-30T09:27:19.600Z,146.25
2019-03-30T09:28:19.476Z,146.25
2019-03-30T09:29:19.355Z,151.88
2019-03-30T09:30:19.236Z,157.50
2019-03-30T09:31:19.109Z,151.88
2019-03-30T09:32:20.646Z,151.88
2019-03-30T09:33:18.867Z,157.50
2019-03-30T09:34:18.742Z,151.88
2019-03-30T09:35:18.624Z,151.88
2019-03-30T09:36:18.498Z,151.88
2019-03-30T09:37:18.379Z,151.88
2019-03-30T09:38:18.270Z,157.50
2019-03-30T09:39:18.135Z,157.50
2019-03-30T09:40:18.015Z,157.50
2019-03-30T09:41:17.891Z,157.50
2019-03-30T09:42:17.770Z,168.75
2019-03-30T09:43:17.646Z,157.50
2019-03-30T09:44:17.525Z,163.13
2019-03-30T09:45:17.405Z,157.50
2019-03-30T09:46:17.282Z,163.13
2019-03-30T09:47:17.163Z,157.50
2019-03-30T09:48:17.042Z,163.13
2019-03-30T09:49:16.925Z,157.50
2019-03-30T09:50:16.797Z,168.75
2019-03-30T09:51:16.677Z,168.75
2019-03-30T09:52:16.554Z,168.75
2019-03-30T09:53:16.437Z,168.75
2019-03-30T09:54:23.517Z,168.75
2019-03-30T09:55:16.186Z,180.00
2019-03-30T09:56:16.068Z,174.38
2019-03-30T09:57:15.948Z,174.38
2019-03-30T09:58:15.825Z,174.38
2019-03-30T09:59:15.732Z,174.38
2019-03-30T10:00:15.585Z,174.38
2019-03-30T10:01:15.461Z,174.38
2019-03-30T10:02:15.342Z,174.38
2019-03-30T10:03:15.220Z,174.38
2019-03-30T10:04:15.105Z,174.38
2019-03-30T10:05:14.978Z,168.75
2019-03-30T10:06:14.856Z,168.75
2019-03-30T10:07:14.740Z,174.38
2019-03-30T10:08:14.614Z,168.75
2019-03-30T10:09:14.496Z,168.75
2019-03-30T10:10:14.375Z,174.38
2019-03-30T10:11:14.250Z,168.75
2019-03-30T10:12:14.142Z,174.38
2019-03-30T10:13:14.010Z,180.00
2019-03-30T10:14:13.889Z,180.00
2019-03-30T10:15:13.768Z,180.00
2019-03-30T10:16:13.647Z,180.00
2019-03-30T10:17:13.526Z,180.00
2019-03-30T10:18:13.403Z,174.38
2019-03-30T10:19:13.283Z,174.38
2019-03-30T10:20:13.163Z,180.00
2019-03-30T10:21:13.041Z,180.00
2019-03-30T10:22:12.924Z,180.00
2019-03-30T10:23:12.801Z,185.63
2019-03-30T10:24:12.679Z,185.63
2019-03-30T10:25:12.558Z,191.25
2019-03-30T10:26:12.436Z,185.63
2019-03-30T10:27:12.316Z,185.63
2019-03-30T10:28:12.196Z,191.25
2019-03-30T10:29:12.076Z,196.88
2019-03-30T10:30:11.953Z,191.25
2019-03-30T10:31:11.831Z,196.88
2019-03-30T10:32:11.710Z,196.88
2019-03-30T10:33:11.590Z,202.50
2019-03-30T10:34:11.470Z,202.50
2019-03-30T10:35:11.350Z,202.50
2019-03-30T10:36:11.228Z,202.50
2019-03-30T10:37:11.110Z,196.88
2019-03-30T10:38:10.989Z,196.88
2019-03-30T10:39:10.868Z,196.88
2019-03-30T10:40:10.748Z,196.88
2019-03-30T10:41:10.629Z,196.88
2019-03-30T10:42:10.508Z,196.88
2019-03-30T10:43:10.389Z,196.88
2019-03-30T10:44:10.268Z,196.88
2019-03-30T10:45:10.151Z,196.88
2019-03-30T10:46:10.080Z,202.50
2019-03-30T10:47:09.907Z,202.50
2019-03-30T10:48:09.788Z,202.50
2019-03-30T10:49:09.669Z,202.50
2019-03-30T10:50:09.549Z,202.50
2019-03-30T10:51:09.427Z,202.50
2019-03-30T10:52:09.310Z,202.50
2019-03-30T10:53:09.187Z,208.13
2019-03-30T10:54:09.084Z,202.50
2019-03-30T10:55:08.952Z,202.50
2019-03-30T10:56:08.835Z,202.50
2019-03-30T10:57:08.711Z,202.50
2019-03-30T10:58:08.591Z,208.13
2019-03-30T10:59:08.469Z,202.50
2019-03-30T11:00:08.354Z,202.50
2019-03-30T11:01:08.233Z,196.88
2019-03-30T11:02:08.112Z,196.88
2019-03-30T11:03:08.007Z,196.88
2019-03-30T11:04:07.874Z,202.50
2019-03-30T11:05:07.756Z,202.50
2019-03-30T11:06:07.633Z,202.50
2019-03-30T11:07:07.513Z,208.13
2019-03-30T11:08:07.397Z,202.50
2019-03-30T11:09:07.789Z,202.50
2019-03-30T11:10:07.160Z,202.50
2019-03-30T11:11:07.037Z,202.50
2019-03-30T11:12:06.918Z,208.13
2019-03-30T11:13:06.797Z,202.50
2019-03-30T11:14:06.680Z,202.50
2019-03-30T11:15:06.560Z,208.13
2019-03-30T11:16:06.446Z,202.50
2019-03-30T11:17:06.323Z,196.88
2019-03-30T11:18:06.203Z,202.50
2019-03-30T11:19:06.081Z,213.75
2019-03-30T11:20:05.963Z,219.38
2019-03-30T11:21:05.844Z,225.00
2019-03-30T11:22:05.729Z,225.00
2019-03-30T11:23:05.609Z,230.63
2019-03-30T11:24:06.815Z,230.63
2019-03-30T11:25:07.958Z,241.88
2019-03-30T11:26:05.247Z,236.25
2019-03-30T11:27:05.129Z,241.88
2019-03-30T11:28:05.015Z,241.88
2019-03-30T11:29:04.890Z,241.88
2019-03-30T11:30:04.769Z,241.88
2019-03-30T11:31:05.589Z,236.25
2019-03-30T11:32:04.530Z,236.25
2019-03-30T11:33:04.415Z,236.25
2019-03-30T11:34:05.493Z,230.63
2019-03-30T11:35:04.174Z,225.00
2019-03-30T11:36:04.054Z,236.25
2019-03-30T11:37:03.935Z,236.25
2019-03-30T11:38:03.819Z,236.25
2019-03-30T11:39:03.697Z,236.25
2019-03-30T11:40:03.580Z,241.88
2019-03-30T11:41:03.458Z,241.88
2019-03-30T11:42:03.339Z,241.88
2019-03-30T11:43:03.220Z,241.88
2019-03-30T11:44:03.104Z,236.25
2019-03-30T11:45:02.983Z,236.25
2019-03-30T11:46:02.867Z,236.25
2019-03-30T11:47:02.750Z,236.25
2019-03-30T11:48:02.663Z,230.63
2019-03-30T11:49:02.509Z,230.63
2019-03-30T11:50:02.393Z,230.63
2019-03-30T11:51:02.269Z,236.25
2019-03-30T11:52:02.155Z,230.63
2019-03-30T11:53:02.035Z,236.25
2019-03-30T11:54:01.913Z,236.25
2019-03-30T11:55:01.795Z,236.25
2019-03-30T11:56:01.679Z,236.25
2019-03-30T11:57:01.554Z,236.25
2019-03-30T11:58:01.439Z,236.25
2019-03-30T11:59:01.316Z,236.25
2019-03-30T12:00:01.194Z,236.25
2019-03-30T12:01:01.076Z,236.25
2019-03-30T12:02:00.957Z,236.25
2019-03-30T12:03:00.915Z,236.25
2019-03-30T12:04:00.717Z,236.25
2019-03-30T12:05:00.602Z,230.63
2019-03-30T12:06:00.482Z,236.25
2019-03-30T12:07:00.362Z,230.63
2019-03-30T12:08:00.245Z,230.63
2019-03-30T12:09:00.123Z,236.25
2019-03-30T12:10:00.002Z,236.25
2019-03-30T12:10:59.884Z,236.25
2019-03-30T12:11:59.766Z,236.25
2019-03-30T12:12:59.646Z,236.25
2019-03-30T12:13:59.527Z,236.25
2019-03-30T12:14:59.411Z,236.25
2019-03-30T12:15:59.290Z,236.25
2019-03-30T12:16:59.178Z,236.25
2019-03-30T12:17:59.053Z,236.25
2019-03-30T12:18:58.935Z,236.25
2019-03-30T12:19:58.816Z,236.25
2019-03-30T12:20:58.693Z,236.25
2019-03-30T12:21:58.655Z,241.88
2019-03-30T12:22:58.455Z,236.25
2019-03-30T12:23:58.336Z,241.88
2019-03-30T12:24:58.221Z,253.13
2019-03-30T12:25:58.101Z,253.13
2019-03-30T12:26:57.982Z,236.25
2019-03-30T12:27:57.864Z,236.25
2019-03-30T12:28:57.743Z,236.25
2019-03-30T12:29:57.624Z,236.25
2019-03-30T12:30:57.509Z,236.25
2019-03-30T12:31:57.385Z,236.25
2019-03-30T12:32:57.266Z,236.25
2019-03-30T12:33:57.195Z,236.25
2019-03-30T12:34:57.027Z,236.25
2019-03-30T12:35:56.908Z,236.25
2019-03-30T12:36:56.791Z,236.25
2019-03-30T12:37:56.673Z,236.25
2019-03-30T12:38:56.553Z,241.88
2019-03-30T12:39:58.209Z,241.88
2019-03-30T12:40:56.317Z,241.88
2019-03-30T12:41:56.199Z,241.88
2019-03-30T12:42:56.078Z,247.50
2019-03-30T12:43:55.961Z,247.50
2019-03-30T12:44:55.845Z,247.50
2019-03-30T12:45:55.728Z,247.50
2019-03-30T12:46:55.615Z,247.50
2019-03-30T12:47:55.491Z,247.50
2019-03-30T12:48:55.376Z,247.50
2019-03-30T12:49:55.256Z,247.50